Terminal Aerodrome Forecast
Issued by NWS

Home | Current Version | Previous Version | Graphics & Text | Print | Product List | Glossary On
Versions: 1 2 3 4 5 6 7 8 9 10 11 12 13 14 15 16 17 18 19 20 21 22 23 24 25 26 27 28 29 30
000
FTUS43 KGRB 261346 AAA
TAFCWA
TAF AMD
KCWA 261346Z 2614/2712 21006KT 6SM -SHRA SCT035 OVC070
      TEMPO 2614/2615 3SM +TSRA BKN035CB
     FM261500 24006KT P6SM -SHRA BKN035
     FM261900 26006KT P6SM BKN030 OVC150
     FM270000 32004KT P6SM SCT030 BKN150
     FM270500 01003KT P6SM SCT120
      TEMPO 2708/2712 3SM BR BKN025=

USA.gov is the U.S. government's official web portal to all federal, state and local government web resources and services.